Time;durP1;ratioP1;P1;durP2;ratioP2;P2;SDS_P1;SDS_P2;PMS_P1;PMS_P2;Temp;Humidity;BMP_temperature;BMP_pressure;BME280_temperature;BME280_humidity;BME280_pressure;Samples;Min_cycle;Max_cycle;Signal;HPM_P1;HPM_P2
2021/11/06 00:00:31;;;;;;;;;;;;;;;16.80;58.61;100783.63;2104585;27;20594;-64
2021/11/06 00:01:31;;;;;;;;;;;;;;;16.80;58.73;100789.06;2105930;27;19968;-63
2021/11/06 00:02:31;;;;;;;;;;;;;;;16.80;58.63;100789.06;2106801;27;19948;-64
2021/11/06 00:03:32;;;;;;;;;;;;;;;16.81;58.42;100785.38;2099873;27;19916;-64
2021/11/06 00:04:32;;;;;;;;;;;;;;;16.81;58.49;100790.84;2105355;27;20010;-64
2021/11/06 00:05:33;;;;;;;;;;;;;;;16.81;58.44;100785.38;2107039;27;20369;-63
2021/11/06 00:06:33;;;;;;;;;;;;;;;16.82;58.53;100784.38;2092696;28;20387;-64
2021/11/06 00:07:34;;;;;;;;;;;;;;;16.82;58.53;100787.09;2095493;28;20357;-64
2021/11/06 00:08:34;;;;;;;;;;;;;;;16.81;58.50;100790.84;2105241;27;20282;-64
2021/11/06 00:09:34;;;;;;;;;;;;;;;16.80;58.70;100789.06;2108411;27;20779;-64
2021/11/06 00:10:35;;;;;;;;;;;;;;;16.82;58.59;100795.28;2106592;27;20003;-64
2021/11/06 00:11:36;;;;;;;;;;;;;;;16.80;58.52;100799.97;2108549;27;20401;-65
2021/11/06 00:12:37;;;;;;;;;;;;;;;16.80;58.49;100794.53;2106814;27;19916;-63
2021/11/06 00:13:37;;;;;;;;;;;;;;;16.80;58.56;100794.53;2106930;27;20231;-64
2021/11/06 00:14:37;;;;;;;;;;;;;;;16.80;58.54;100799.97;2108589;27;19927;-59
2021/11/06 00:15:38;;;;;;;;;;;;;;;16.80;58.34;100792.66;2123922;27;19969;-59
2021/11/06 00:16:38;;;;;;;;;;;;;;;16.80;58.47;100794.53;2109469;28;19970;-58
2021/11/06 00:17:39;;;;;;;;;;;;;;;16.80;58.37;100797.25;2115122;28;19912;-58
2021/11/06 00:18:46;;;;;;;;;;;;;;;16.79;58.37;100793.66;2124155;27;20242;-59
2021/11/06 00:19:46;;;;;;;;;;;;;;;16.78;58.45;100786.50;2124168;27;19912;-59
2021/11/06 00:20:47;;;;;;;;;;;;;;;16.79;58.52;100792.78;2116763;27;19920;-59
2021/11/06 00:21:47;;;;;;;;;;;;;;;16.78;58.51;100797.38;2123626;27;19911;-59
2021/11/06 00:22:47;;;;;;;;;;;;;;;16.78;58.38;100782.84;2124300;27;20335;-59
2021/11/06 00:23:54;;;;;;;;;;;;;;;16.79;58.67;100793.66;2118334;27;19912;-59
2021/11/06 00:24:54;;;;;;;;;;;;;;;16.78;58.44;100785.56;2115724;27;19938;-63
2021/11/06 00:25:54;;;;;;;;;;;;;;;16.80;58.35;100794.53;2108924;27;19943;-64
2021/11/06 00:26:55;;;;;;;;;;;;;;;16.80;58.53;100794.53;2107503;27;19919;-64
2021/11/06 00:27:55;;;;;;;;;;;;;;;16.79;58.47;100795.53;2107425;27;19953;-64
2021/11/06 00:28:55;;;;;;;;;;;;;;;16.78;58.38;100797.38;2095751;28;19930;-63
2021/11/06 00:29:56;;;;;;;;;;;;;;;16.79;58.43;100798.25;2091865;28;19916;-64
2021/11/06 00:30:56;;;;;;;;;;;;;;;16.78;58.33;100805.56;2102813;27;19919;-64
2021/11/06 00:31:56;;;;;;;;;;;;;;;16.78;58.43;100802.81;2103559;27;19930;-64
2021/11/06 00:32:57;;;;;;;;;;;;;;;16.78;58.45;100793.72;2106567;27;19915;-63
2021/11/06 00:33:57;;;;;;;;;;;;;;;16.78;58.48;100799.19;2104276;27;19955;-64
2021/11/06 00:34:57;;;;;;;;;;;;;;;16.78;58.60;100802.81;2109066;27;19908;-64
2021/11/06 00:35:57;;;;;;;;;;;;;;;16.78;58.39;100804.63;2104951;27;19919;-63
2021/11/06 00:36:58;;;;;;;;;;;;;;;16.78;58.53;100801.91;2107988;27;19916;-64
2021/11/06 00:37:58;;;;;;;;;;;;;;;16.77;58.45;100805.63;2098000;28;19923;-64
2021/11/06 00:38:59;;;;;;;;;;;;;;;16.77;58.12;100805.63;2086075;28;19924;-64
2021/11/06 00:39:59;;;;;;;;;;;;;;;16.77;58.40;100802.91;2091208;28;19908;-64
2021/11/06 00:40:59;;;;;;;;;;;;;;;16.78;58.34;100808.28;2096407;28;19958;-64
2021/11/06 00:42:03;;;;;;;;;;;;;;;16.78;58.29;100796.44;2107074;27;19937;-64
2021/11/06 00:43:03;;;;;;;;;;;;;;;16.77;58.30;100794.72;2096669;28;19967;-64
2021/11/06 00:44:03;;;;;;;;;;;;;;;16.76;58.45;100804.75;2098902;28;19916;-64
2021/11/06 00:45:05;;;;;;;;;;;;;;;16.78;58.19;100800.09;2107740;27;19964;-65
2021/11/06 00:46:05;;;;;;;;;;;;;;;16.77;58.28;100803.75;2105926;27;19915;-64
2021/11/06 00:47:06;;;;;;;;;;;;;;;16.77;58.33;100803.75;2097008;28;19998;-65
2021/11/06 00:48:07;;;;;;;;;;;;;;;16.77;58.12;100797.44;2090012;28;19969;-65
2021/11/06 00:49:07;;;;;;;;;;;;;;;16.77;58.31;100806.47;2094218;28;19920;-65
2021/11/06 00:50:09;;;;;;;;;;;;;;;16.77;58.23;100797.44;2096572;28;20120;-65
2021/11/06 00:51:09;;;;;;;;;;;;;;;16.76;58.34;100807.47;2091341;28;19923;-65
2021/11/06 00:52:10;;;;;;;;;;;;;;;16.76;58.49;100810.22;2099171;27;19915;-65
2021/11/06 00:53:10;;;;;;;;;;;;;;;16.76;58.39;100810.22;2102897;27;19922;-65
2021/11/06 00:54:10;;;;;;;;;;;;;;;16.76;58.37;100804.75;2106369;27;19922;-65
2021/11/06 00:55:11;;;;;;;;;;;;;;;16.75;58.28;100805.72;2102674;27;19916;-65
2021/11/06 00:56:11;;;;;;;;;;;;;;;16.76;58.28;100803.91;2106392;27;19915;-65
2021/11/06 00:57:12;;;;;;;;;;;;;;;16.76;58.33;100810.22;2101412;27;20119;-65
2021/11/06 00:58:12;;;;;;;;;;;;;;;16.76;58.29;100807.47;2106083;27;19915;-65
2021/11/06 00:59:13;;;;;;;;;;;;;;;16.76;58.34;100796.59;2098858;28;20413;-65
2021/11/06 01:00:15;;;;;;;;;;;;;;;16.77;58.39;100805.63;2085900;28;19962;-65
2021/11/06 01:01:16;;;;;;;;;;;;;;;16.76;58.40;100803.91;2099736;28;20593;-65
2021/11/06 01:02:16;;;;;;;;;;;;;;;16.77;58.44;100800.19;2106175;27;20424;-65
2021/11/06 01:03:16;;;;;;;;;;;;;;;16.75;58.54;100802.16;2100196;27;20614;-65
2021/11/06 01:04:17;;;;;;;;;;;;;;;16.76;58.39;100803.91;2105595;27;20375;-65
2021/11/06 01:05:18;;;;;;;;;;;;;;;16.75;58.12;100807.59;2095575;28;19922;-65
2021/11/06 01:06:18;;;;;;;;;;;;;;;16.76;58.57;100803.91;2097485;28;20125;-65
2021/11/06 01:07:19;;;;;;;;;;;;;;;16.76;58.31;100803.91;2100310;27;19941;-64
2021/11/06 01:08:19;;;;;;;;;;;;;;;16.76;58.45;100809.34;2106137;27;20318;-65
2021/11/06 01:09:19;;;;;;;;;;;;;;;16.75;58.37;100813.03;2108284;27;19922;-65
2021/11/06 01:10:20;;;;;;;;;;;;;;;16.75;58.39;100810.31;2095730;28;19916;-65
2021/11/06 01:11:20;;;;;;;;;;;;;;;16.75;58.26;100813.03;2096193;28;20123;-65
2021/11/06 01:12:20;;;;;;;;;;;;;;;16.75;58.34;100802.16;2108117;27;20041;-64
2021/11/06 01:13:21;;;;;;;;;;;;;;;16.75;58.29;100811.16;2101035;27;20390;-64
2021/11/06 01:14:21;;;;;;;;;;;;;;;16.74;58.23;100801.28;2103506;27;20355;-65
2021/11/06 01:15:22;;;;;;;;;;;;;;;16.74;58.54;100805.88;2100165;27;19916;-65
2021/11/06 01:16:22;;;;;;;;;;;;;;;16.74;58.36;100805.88;2102922;27;20037;-64
2021/11/06 01:17:22;;;;;;;;;;;;;;;16.75;58.33;100804.88;2103669;27;20536;-65
2021/11/06 01:18:23;;;;;;;;;;;;;;;16.74;58.33;100806.72;2103507;27;20421;-65
2021/11/06 01:19:23;;;;;;;;;;;;;;;16.75;58.46;100813.03;2103638;27;21067;-65
2021/11/06 01:20:23;;;;;;;;;;;;;;;16.74;58.32;100805.88;2105949;27;20013;-65
2021/11/06 01:21:24;;;;;;;;;;;;;;;16.74;58.35;100809.44;2104453;27;19996;-65
2021/11/06 01:22:25;;;;;;;;;;;;;;;16.74;58.35;100803.16;2105369;27;20389;-64
2021/11/06 01:23:26;;;;;;;;;;;;;;;16.73;58.38;100807.69;2091700;28;20413;-65
2021/11/06 01:24:26;;;;;;;;;;;;;;;16.74;58.24;100811.31;2095364;28;20294;-65
2021/11/06 01:25:26;;;;;;;;;;;;;;;16.74;58.34;100819.47;2104009;27;19916;-65
2021/11/06 01:26:27;;;;;;;;;;;;;;;16.74;58.48;100812.16;2102665;27;19919;-65
2021/11/06 01:27:27;;;;;;;;;;;;;;;16.74;58.34;100814.91;2105611;27;19915;-65
2021/11/06 01:28:28;;;;;;;;;;;;;;;16.75;58.43;100813.03;2100086;27;20333;-64
2021/11/06 01:29:28;;;;;;;;;;;;;;;16.73;58.40;100815.88;2095408;28;20357;-65
2021/11/06 01:30:29;;;;;;;;;;;;;;;16.72;58.24;100812.28;2095357;28;19920;-65
2021/11/06 01:31:29;;;;;;;;;;;;;;;16.72;58.46;100815.00;2097409;28;20297;-65
2021/11/06 01:32:29;;;;;;;;;;;;;;;16.72;58.37;100809.56;2094166;28;20346;-65
2021/11/06 01:33:30;;;;;;;;;;;;;;;16.72;58.40;100814.13;2100050;28;20062;-64
2021/11/06 01:34:30;;;;;;;;;;;;;;;16.72;58.35;100812.28;2097492;27;19942;-65
2021/11/06 01:35:33;;;;;;;;;;;;;;;16.71;58.35;100805.09;2101557;27;20302;-65
2021/11/06 01:36:34;;;;;;;;;;;;;;;16.72;58.52;100809.56;2110044;27;19907;-65
2021/11/06 01:37:34;;;;;;;;;;;;;;;16.72;58.40;100809.56;2102231;27;19927;-65
2021/11/06 01:38:34;;;;;;;;;;;;;;;16.71;58.46;100801.53;2095700;28;20458;-65
2021/11/06 01:39:35;;;;;;;;;;;;;;;16.71;58.42;100802.38;2098990;28;20738;-65
2021/11/06 01:40:35;;;;;;;;;;;;;;;16.71;58.33;100806.97;2104743;27;20003;-65
2021/11/06 01:41:35;;;;;;;;;;;;;;;16.71;58.42;100807.84;2103085;28;19922;-65
2021/11/06 01:42:36;;;;;;;;;;;;;;;16.70;58.30;100806.06;2105447;27;19923;-65
2021/11/06 01:43:37;;;;;;;;;;;;;;;16.71;58.42;100799.66;2098425;27;20313;-65
2021/11/06 01:44:37;;;;;;;;;;;;;;;16.71;58.36;100804.25;2103881;28;20134;-65
2021/11/06 01:45:38;;;;;;;;;;;;;;;16.71;58.37;100796.94;2106068;27;19915;-65
2021/11/06 01:46:38;;;;;;;;;;;;;;;16.70;58.09;100803.34;2101387;28;20577;-64
2021/11/06 01:47:38;;;;;;;;;;;;;;;16.70;58.33;100811.53;2104000;27;20125;-65
2021/11/06 01:48:39;;;;;;;;;;;;;;;16.71;58.46;100810.56;2091727;28;20335;-65
2021/11/06 01:49:39;;;;;;;;;;;;;;;16.71;58.27;100809.69;2097859;28;20842;-65
2021/11/06 01:50:39;;;;;;;;;;;;;;;16.71;58.28;100807.84;2096004;28;20043;-65
2021/11/06 01:51:40;;;;;;;;;;;;;;;16.70;58.33;100800.63;2096177;28;20049;-65
2021/11/06 01:52:40;;;;;;;;;;;;;;;16.70;58.39;100800.63;2107437;28;19916;-64
2021/11/06 01:53:41;;;;;;;;;;;;;;;16.71;58.43;100806.97;2095687;28;19916;-65
2021/11/06 01:54:41;;;;;;;;;;;;;;;16.70;58.20;100808.81;2097003;28;19915;-65
2021/11/06 01:55:41;;;;;;;;;;;;;;;16.70;58.39;100806.06;2107270;28;19922;-64
2021/11/06 01:56:42;;;;;;;;;;;;;;;16.70;58.36;100800.63;2106403;27;20547;-64
2021/11/06 01:57:43;;;;;;;;;;;;;;;16.70;58.38;100806.06;2107026;28;19915;-65
2021/11/06 01:58:44;;;;;;;;;;;;;;;16.69;58.35;100809.78;2103224;27;19965;-64
2021/11/06 01:59:44;;;;;;;;;;;;;;;16.70;58.39;100808.81;2097558;28;19915;-65
2021/11/06 02:00:45;;;;;;;;;;;;;;;16.71;58.24;100806.97;2097204;28;19946;-65
2021/11/06 02:01:46;;;;;;;;;;;;;;;16.70;58.11;100799.78;2103783;27;20373;-64
2021/11/06 02:02:46;;;;;;;;;;;;;;;16.70;58.55;100806.06;2098184;28;20049;-65
2021/11/06 02:03:47;;;;;;;;;;;;;;;16.70;58.19;100808.81;2095024;28;20343;-64
2021/11/06 02:04:48;;;;;;;;;;;;;;;16.70;58.46;100810.66;2104658;27;19916;-65
2021/11/06 02:05:49;;;;;;;;;;;;;;;16.70;58.26;100811.53;2097783;28;20283;-65
2021/11/06 02:06:50;;;;;;;;;;;;;;;16.70;58.34;100806.06;2096173;28;20487;-65
2021/11/06 02:07:50;;;;;;;;;;;;;;;16.70;58.32;100816.97;2107524;28;20293;-65
2021/11/06 02:08:51;;;;;;;;;;;;;;;16.70;58.33;100814.25;2097080;28;19908;-62
2021/11/06 02:09:51;;;;;;;;;;;;;;;16.70;58.44;100816.09;2087530;28;19928;-64
2021/11/06 02:10:53;;;;;;;;;;;;;;;16.69;58.16;100809.78;2095821;28;19915;-64
2021/11/06 02:11:54;;;;;;;;;;;;;;;16.70;58.29;100810.66;2096385;28;19958;-64
2021/11/06 02:12:54;;;;;;;;;;;;;;;16.69;58.42;100819.81;2099026;28;19926;-64
2021/11/06 02:13:54;;;;;;;;;;;;;;;16.69;58.46;100820.69;2107061;27;19915;-64
2021/11/06 02:14:55;;;;;;;;;;;;;;;16.69;58.36;100807.06;2107493;27;19907;-65
2021/11/06 02:15:55;;;;;;;;;;;;;;;16.70;58.38;100816.09;2107281;27;19992;-64
2021/11/06 02:16:55;;;;;;;;;;;;;;;16.69;58.37;100809.78;2110267;27;20434;-64
2021/11/06 02:17:56;;;;;;;;;;;;;;;16.69;58.28;100809.78;2105881;27;19973;-64
2021/11/06 02:18:56;;;;;;;;;;;;;;;16.69;58.33;100815.25;2106277;27;19956;-64
2021/11/06 02:19:57;;;;;;;;;;;;;;;16.69;58.60;100815.25;2101829;27;19911;-64
2021/11/06 02:20:59;;;;;;;;;;;;;;;16.69;58.25;100815.25;2109862;27;19926;-64
2021/11/06 02:22:00;;;;;;;;;;;;;;;16.68;58.42;100808.06;2105578;27;20478;-64
2021/11/06 02:23:00;;;;;;;;;;;;;;;16.69;58.43;100809.78;2108720;27;20210;-64
2021/11/06 02:24:01;;;;;;;;;;;;;;;16.69;58.25;100809.78;2102608;27;20168;-64
2021/11/06 02:25:01;;;;;;;;;;;;;;;16.68;58.34;100805.34;2106248;27;19977;-64
2021/11/06 02:26:02;;;;;;;;;;;;;;;16.68;58.43;100810.78;2107215;27;20210;-64
2021/11/06 02:27:02;;;;;;;;;;;;;;;16.68;58.48;100810.78;2106169;27;19954;-64
2021/11/06 02:28:03;;;;;;;;;;;;;;;16.69;58.37;100808.94;2108123;27;20949;-64
2021/11/06 02:29:03;;;;;;;;;;;;;;;16.68;58.35;100813.53;2092611;28;19943;-64
2021/11/06 02:30:05;;;;;;;;;;;;;;;16.68;58.42;100816.25;2100707;28;19923;-64
2021/11/06 02:31:06;;;;;;;;;;;;;;;16.67;58.45;100819.94;2100575;27;20392;-64
2021/11/06 02:32:07;;;;;;;;;;;;;;;16.68;58.36;100820.78;2102144;27;21480;-64
2021/11/06 02:33:07;;;;;;;;;;;;;;;16.68;58.30;100816.25;2100686;28;20387;-64
2021/11/06 02:34:08;;;;;;;;;;;;;;;16.68;58.50;100813.53;2092698;28;20295;-64
2021/11/06 02:35:08;;;;;;;;;;;;;;;16.68;58.42;100818.97;2101823;27;19916;-64
2021/11/06 02:36:09;;;;;;;;;;;;;;;16.68;58.33;100820.78;2099362;27;20294;-64
2021/11/06 02:37:09;;;;;;;;;;;;;;;16.68;58.31;100818.06;2100374;27;19908;-64
2021/11/06 02:38:11;;;;;;;;;;;;;;;16.68;58.29;100818.97;2101042;28;20239;-64
2021/11/06 02:39:11;;;;;;;;;;;;;;;16.66;58.38;100815.47;2100536;27;20298;-64
2021/11/06 02:40:12;;;;;;;;;;;;;;;16.66;58.40;100815.47;2101711;28;19915;-65
2021/11/06 02:41:13;;;;;;;;;;;;;;;16.67;58.41;100825.38;2108361;27;19926;-64
2021/11/06 02:42:14;;;;;;;;;;;;;;;16.66;58.47;100815.47;2106896;27;19927;-64
2021/11/06 02:43:14;;;;;;;;;;;;;;;16.67;58.32;100822.66;2110431;27;20393;-64
2021/11/06 02:44:15;;;;;;;;;;;;;;;16.66;58.30;100814.63;2101310;27;20330;-64
2021/11/06 02:45:15;;;;;;;;;;;;;;;16.67;58.49;100819.94;2106878;27;19915;-65
2021/11/06 02:46:15;;;;;;;;;;;;;;;16.66;58.42;100822.78;2107655;27;20007;-65
2021/11/06 02:47:16;;;;;;;;;;;;;;;16.65;58.42;100819.16;2106298;27;19963;-65
2021/11/06 02:48:16;;;;;;;;;;;;;;;16.65;58.42;100816.44;2093467;28;19916;-64
2021/11/06 02:49:17;;;;;;;;;;;;;;;16.66;58.46;100818.22;2097051;28;19915;-65
2021/11/06 02:50:17;;;;;;;;;;;;;;;16.66;58.30;100823.66;2108557;27;20325;-65
2021/11/06 02:51:17;;;;;;;;;;;;;;;16.66;58.54;100823.66;2100684;27;19916;-65
2021/11/06 02:52:18;;;;;;;;;;;;;;;16.66;58.52;100829.09;2102410;27;19922;-65
2021/11/06 02:53:18;;;;;;;;;;;;;;;16.66;58.41;100820.06;2103485;27;20400;-64
2021/11/06 02:54:18;;;;;;;;;;;;;;;16.65;58.35;100824.63;2102737;27;20254;-64
2021/11/06 02:55:19;;;;;;;;;;;;;;;16.64;58.39;100817.44;2105660;27;19915;-65
2021/11/06 02:56:22;;;;;;;;;;;;;;;16.64;58.42;100817.44;2102482;27;20558;-65
2021/11/06 02:57:23;;;;;;;;;;;;;;;16.65;58.52;100826.47;2108409;27;19915;-65
2021/11/06 02:58:27;;;;;;;;;;;;;;;16.65;58.40;100829.19;2104067;27;20085;-65
2021/11/06 02:59:27;;;;;;;;;;;;;;;16.65;58.34;100824.63;2108575;27;20227;-65
2021/11/06 03:00:29;;;;;;;;;;;;;;;16.65;58.39;100830.06;2105458;27;19922;-65
2021/11/06 03:01:30;;;;;;;;;;;;;;;16.66;58.31;100836.41;2100624;27;19963;-65
2021/11/06 03:02:30;;;;;;;;;;;;;;;16.65;58.46;100827.34;2103915;27;19951;-65
2021/11/06 03:03:30;;;;;;;;;;;;;;;16.65;58.33;100830.06;2108514;27;20384;-65
2021/11/06 03:04:37;;;;;;;;;;;;;;;16.65;58.32;100831.91;2108745;27;19915;-65
2021/11/06 03:05:38;;;;;;;;;;;;;;;16.65;58.14;100829.19;2102009;27;20049;-65
2021/11/06 03:06:38;;;;;;;;;;;;;;;16.64;58.43;100825.63;2106814;27;19915;-65
2021/11/06 03:07:39;;;;;;;;;;;;;;;16.64;58.39;100833.78;2107422;27;20436;-65
2021/11/06 03:08:39;;;;;;;;;;;;;;;16.64;58.34;100827.47;2103350;27;19908;-65
2021/11/06 03:09:41;;;;;;;;;;;;;;;16.65;58.42;100829.19;2105711;27;19907;-65
2021/11/06 03:10:42;;;;;;;;;;;;;;;16.65;58.23;100829.19;2103065;27;19965;-65
2021/11/06 03:11:42;;;;;;;;;;;;;;;16.64;58.43;100822.91;2107701;27;19916;-65
2021/11/06 03:12:44;;;;;;;;;;;;;;;16.64;58.38;100828.34;2104439;27;19998;-65
2021/11/06 03:13:45;;;;;;;;;;;;;;;16.63;58.50;100823.84;2105800;27;19919;-65
2021/11/06 03:14:46;;;;;;;;;;;;;;;16.62;58.50;100827.56;2104744;27;20451;-65
2021/11/06 03:15:47;;;;;;;;;;;;;;;16.63;58.45;100829.31;2098640;27;19916;-65
2021/11/06 03:16:47;;;;;;;;;;;;;;;16.63;58.41;100826.59;2108754;27;19927;-65
2021/11/06 03:17:48;;;;;;;;;;;;;;;16.63;58.35;100820.28;2105497;27;20355;-65
2021/11/06 03:18:48;;;;;;;;;;;;;;;16.63;58.44;100826.59;2106390;27;19919;-65
2021/11/06 03:19:48;;;;;;;;;;;;;;;16.64;58.42;100832.91;2107023;27;20289;-65
2021/11/06 03:20:50;;;;;;;;;;;;;;;16.63;58.34;100831.16;2097293;28;20010;-65
2021/11/06 03:21:50;;;;;;;;;;;;;;;16.63;58.44;100831.16;2099713;28;20022;-64
2021/11/06 03:22:57;;;;;;;;;;;;;;;16.64;58.62;100827.47;2105208;27;19923;-63
2021/11/06 03:23:57;;;;;;;;;;;;;;;16.64;58.35;100831.06;2102778;27;20784;-63
2021/11/06 03:24:58;;;;;;;;;;;;;;;16.63;58.55;100829.31;2104191;27;20374;-64
2021/11/06 03:25:58;;;;;;;;;;;;;;;16.63;58.36;100834.75;2104175;27;19963;-64
2021/11/06 03:26:59;;;;;;;;;;;;;;;16.64;58.42;100836.50;2102566;27;19999;-64
2021/11/06 03:27:59;;;;;;;;;;;;;;;16.63;58.40;100834.75;2104792;27;19915;-64
2021/11/06 03:29:00;;;;;;;;;;;;;;;16.63;58.48;100848.34;2099008;28;19920;-64
2021/11/06 03:30:00;;;;;;;;;;;;;;;16.63;58.36;100848.34;2099872;28;19992;-64
2021/11/06 03:31:01;;;;;;;;;;;;;;;16.64;58.33;100846.53;2106377;27;20404;-64
2021/11/06 03:32:01;;;;;;;;;;;;;;;16.63;58.43;100845.63;2108185;27;19923;-64
2021/11/06 03:33:02;;;;;;;;;;;;;;;16.63;58.37;100842.06;2099958;27;20265;-64
2021/11/06 03:34:02;;;;;;;;;;;;;;;16.63;58.17;100847.50;2100453;27;19938;-64
2021/11/06 03:35:04;;;;;;;;;;;;;;;16.62;58.46;100841.19;2091619;28;19916;-64
2021/11/06 03:36:04;;;;;;;;;;;;;;;16.62;58.32;100846.63;2096243;28;19916;-64
2021/11/06 03:37:05;;;;;;;;;;;;;;;16.62;58.52;100841.19;2107824;27;20490;-64
2021/11/06 03:38:05;;;;;;;;;;;;;;;16.62;58.32;100843.91;2107903;27;20096;-64
2021/11/06 03:39:05;;;;;;;;;;;;;;;16.61;58.36;100839.47;2105979;27;20317;-64
2021/11/06 03:40:06;;;;;;;;;;;;;;;16.61;58.31;100839.47;2106408;27;20011;-64
2021/11/06 03:41:06;;;;;;;;;;;;;;;16.61;58.42;100839.47;2105852;27;20097;-64
2021/11/06 03:42:07;;;;;;;;;;;;;;;16.62;58.45;100841.19;2101315;27;20649;-64
2021/11/06 03:43:07;;;;;;;;;;;;;;;16.62;58.30;100845.78;2105251;27;19966;-64
2021/11/06 03:44:08;;;;;;;;;;;;;;;16.62;58.34;100846.63;2102442;27;19959;-64
2021/11/06 03:45:09;;;;;;;;;;;;;;;16.63;58.37;100847.50;2102386;27;19915;-64
2021/11/06 03:46:09;;;;;;;;;;;;;;;16.63;58.43;100852.94;2091448;28;19923;-64
2021/11/06 03:47:09;;;;;;;;;;;;;;;16.62;58.41;100843.91;2095230;28;20272;-66
2021/11/06 03:48:10;;;;;;;;;;;;;;;16.61;58.45;100850.34;2097385;28;19916;-63
2021/11/06 03:49:11;;;;;;;;;;;;;;;16.62;58.43;100856.66;2096685;28;20379;-64
2021/11/06 03:50:12;;;;;;;;;;;;;;;16.61;58.34;100855.78;2097446;27;20377;-64
2021/11/06 03:51:12;;;;;;;;;;;;;;;16.61;58.25;100853.06;2099489;28;19907;-64
2021/11/06 03:52:13;;;;;;;;;;;;;;;16.62;58.48;100859.38;2096075;28;19957;-64
2021/11/06 03:53:14;;;;;;;;;;;;;;;16.61;58.29;100855.78;2103053;27;20407;-64
2021/11/06 03:54:14;;;;;;;;;;;;;;;16.61;58.36;100861.25;2107391;27;20344;-64
2021/11/06 03:55:15;;;;;;;;;;;;;;;16.61;58.38;100854.91;2105134;27;19933;-65
2021/11/06 03:56:16;;;;;;;;;;;;;;;16.60;58.54;100859.47;2109344;27;20720;-64
2021/11/06 03:57:16;;;;;;;;;;;;;;;16.61;58.51;100854.91;2104883;27;19955;-64
2021/11/06 03:58:16;;;;;;;;;;;;;;;16.60;58.21;100862.22;2093244;28;19927;-64
2021/11/06 03:59:17;;;;;;;;;;;;;;;16.60;58.33;100864.94;2099384;28;19908;-64
2021/11/06 04:00:17;;;;;;;;;;;;;;;16.60;58.43;100856.75;2103915;27;20376;-64
2021/11/06 04:01:18;;;;;;;;;;;;;;;16.60;58.37;100859.47;2107381;27;19959;-64
2021/11/06 04:02:18;;;;;;;;;;;;;;;16.60;58.45;100854.03;2105808;27;19923;-64
2021/11/06 04:03:19;;;;;;;;;;;;;;;16.59;58.48;100857.75;2106824;27;19916;-64
2021/11/06 04:04:19;;;;;;;;;;;;;;;16.60;58.27;100862.22;2107625;27;20194;-64
2021/11/06 04:05:20;;;;;;;;;;;;;;;16.59;58.55;100857.75;2106990;27;19922;-64
2021/11/06 04:06:21;;;;;;;;;;;;;;;16.60;58.19;100859.47;2106008;27;19911;-64
2021/11/06 04:07:21;;;;;;;;;;;;;;;16.59;58.54;100857.75;2097848;28;19911;-64
2021/11/06 04:08:21;;;;;;;;;;;;;;;16.60;58.23;100858.63;2097225;28;20038;-64
2021/11/06 04:09:22;;;;;;;;;;;;;;;16.60;58.24;100861.34;2105552;27;19975;-64
2021/11/06 04:10:22;;;;;;;;;;;;;;;16.60;58.37;100856.75;2106097;27;19908;-64
2021/11/06 04:11:23;;;;;;;;;;;;;;;16.59;58.50;100849.59;2097865;28;19950;-64
2021/11/06 04:12:23;;;;;;;;;;;;;;;16.59;58.30;100857.75;2099193;28;20432;-64
2021/11/06 04:13:23;;;;;;;;;;;;;;;16.59;58.33;100863.19;2103915;27;20504;-64
2021/11/06 04:14:24;;;;;;;;;;;;;;;16.59;58.57;100857.75;2105302;27;20309;-64
2021/11/06 04:15:24;;;;;;;;;;;;;;;16.59;58.33;100857.75;2100212;27;19934;-65
2021/11/06 04:16:25;;;;;;;;;;;;;;;16.59;58.42;100863.19;2107048;27;19915;-65
2021/11/06 04:17:25;;;;;;;;;;;;;;;16.59;58.50;100856.91;2106273;27;20048;-64
2021/11/06 04:18:25;;;;;;;;;;;;;;;16.60;58.23;100862.22;2108942;27;20373;-64
2021/11/06 04:19:26;;;;;;;;;;;;;;;16.58;58.41;100856.00;2107138;27;19922;-64
2021/11/06 04:20:26;;;;;;;;;;;;;;;16.59;58.65;100865.06;2105733;27;20378;-64
2021/11/06 04:21:27;;;;;;;;;;;;;;;16.58;58.39;100860.59;2107865;27;20711;-65
2021/11/06 04:22:27;;;;;;;;;;;;;;;16.58;58.45;100861.44;2096302;28;19908;-65
2021/11/06 04:23:28;;;;;;;;;;;;;;;16.58;58.48;100856.00;2094893;28;19926;-65
2021/11/06 04:24:28;;;;;;;;;;;;;;;16.58;58.46;100855.13;2108155;27;20002;-65
2021/11/06 04:25:28;;;;;;;;;;;;;;;16.59;58.45;100856.91;2105467;27;20259;-65
2021/11/06 04:26:29;;;;;;;;;;;;;;;16.59;58.23;100857.75;2108426;27;20177;-65
2021/11/06 04:27:29;;;;;;;;;;;;;;;16.58;58.28;100857.88;2105300;27;20164;-64
2021/11/06 04:28:30;;;;;;;;;;;;;;;16.57;58.26;100862.44;2108207;27;20372;-64
2021/11/06 04:29:30;;;;;;;;;;;;;;;16.57;58.68;100859.72;2105466;27;20738;-64
2021/11/06 04:30:31;;;;;;;;;;;;;;;16.57;58.38;100857.00;2106565;27;20363;-64
2021/11/06 04:31:31;;;;;;;;;;;;;;;16.57;58.50;100857.00;2107716;27;20214;-64
2021/11/06 04:32:31;;;;;;;;;;;;;;;16.57;58.67;100859.72;2106468;27;20337;-65
2021/11/06 04:33:32;;;;;;;;;;;;;;;16.57;58.44;100865.16;2104643;27;20223;-64
2021/11/06 04:34:32;;;;;;;;;;;;;;;16.58;58.58;100866.91;2107997;27;19919;-64
2021/11/06 04:35:33;;;;;;;;;;;;;;;16.58;58.30;100860.59;2106627;27;20369;-64
2021/11/06 04:36:34;;;;;;;;;;;;;;;16.57;58.34;100876.06;2106777;27;19994;-64
2021/11/06 04:37:34;;;;;;;;;;;;;;;16.57;58.39;100862.44;2107103;27;19916;-65
2021/11/06 04:38:35;;;;;;;;;;;;;;;16.57;58.35;100870.59;2104855;27;20030;-65
2021/11/06 04:39:35;;;;;;;;;;;;;;;16.58;58.45;100872.34;2102125;27;20181;-64
2021/11/06 04:40:36;;;;;;;;;;;;;;;16.56;58.39;100868.88;2104965;27;19915;-64
2021/11/06 04:41:36;;;;;;;;;;;;;;;16.57;58.33;100873.34;2106510;27;19987;-64
2021/11/06 04:42:37;;;;;;;;;;;;;;;16.57;58.51;100870.59;2099842;27;19919;-64
2021/11/06 04:43:38;;;;;;;;;;;;;;;16.57;58.52;100877.91;2103255;27;19920;-64
2021/11/06 04:44:38;;;;;;;;;;;;;;;16.57;58.25;100872.47;2104307;27;20400;-64
2021/11/06 04:45:38;;;;;;;;;;;;;;;16.56;58.58;100874.34;2105726;27;19951;-64
2021/11/06 04:46:39;;;;;;;;;;;;;;;16.56;58.44;100879.78;2106620;27;19919;-64
2021/11/06 04:47:39;;;;;;;;;;;;;;;16.57;58.51;100877.91;2108651;27;20456;-64
2021/11/06 04:48:39;;;;;;;;;;;;;;;16.56;58.31;100879.78;2095198;28;20426;-65
2021/11/06 04:49:40;;;;;;;;;;;;;;;16.56;58.38;100878.88;2097455;28;20524;-65
2021/11/06 04:50:40;;;;;;;;;;;;;;;16.56;58.53;100868.88;2099073;28;19931;-64
2021/11/06 04:51:40;;;;;;;;;;;;;;;16.56;58.32;100874.34;2094767;28;19958;-64
2021/11/06 04:52:41;;;;;;;;;;;;;;;16.56;58.48;100878.88;2101290;27;21104;-64
2021/11/06 04:53:41;;;;;;;;;;;;;;;16.56;58.74;100874.34;2099641;27;19915;-65
2021/11/06 04:54:41;;;;;;;;;;;;;;;16.56;58.68;100877.06;2100971;27;19933;-64
2021/11/06 04:55:42;;;;;;;;;;;;;;;16.55;58.26;100867.13;2097660;28;19908;-64
2021/11/06 04:56:42;;;;;;;;;;;;;;;16.55;58.43;100878.00;2096443;28;19908;-64
2021/11/06 04:57:43;;;;;;;;;;;;;;;16.55;58.25;100869.00;2107518;27;20010;-64
2021/11/06 04:58:44;;;;;;;;;;;;;;;16.55;58.43;100872.56;2101397;27;19916;-64
2021/11/06 04:59:44;;;;;;;;;;;;;;;16.56;58.49;100874.34;2100197;27;19942;-64
2021/11/06 05:00:44;;;;;;;;;;;;;;;16.54;58.28;100872.72;2100135;28;20717;-64
2021/11/06 05:01:45;;;;;;;;;;;;;;;16.55;58.53;100880.75;2092594;28;19915;-64
2021/11/06 05:02:45;;;;;;;;;;;;;;;16.54;58.34;100876.28;2091988;28;19949;-64
2021/11/06 05:03:45;;;;;;;;;;;;;;;16.55;58.35;100872.56;2107862;27;19958;-64
2021/11/06 05:04:46;;;;;;;;;;;;;;;16.54;58.47;100881.75;2103229;27;20221;-64
2021/11/06 05:05:46;;;;;;;;;;;;;;;16.55;58.48;100886.19;2107590;27;20014;-65
2021/11/06 05:06:47;;;;;;;;;;;;;;;16.55;58.67;100886.19;2090910;28;20309;-65
2021/11/06 05:07:47;;;;;;;;;;;;;;;16.55;58.54;100882.59;2092598;28;19916;-65
2021/11/06 05:08:47;;;;;;;;;;;;;;;16.54;58.40;100884.47;2108812;27;20347;-65
2021/11/06 05:09:48;;;;;;;;;;;;;;;16.55;58.46;100888.91;2104049;27;20428;-65
2021/11/06 05:10:49;;;;;;;;;;;;;;;16.54;58.41;100887.19;2107293;27;20316;-65